sensor_id;sensor_type;location;lat;lon;timestamp;temperature;humidity
43414;DHT22;73638;49.676;8.606;2024-01-11T00:01:47;-0.8808;58.2193
43414;DHT22;73638;49.676;8.606;2024-01-11T00:06:53;-0.9663;57.5433
43414;DHT22;73638;49.676;8.606;2024-01-11T00:11:59;-1.0357;56.8917
43414;DHT22;73638;49.676;8.606;2024-01-11T00:17:05;-1.1532;56.733
43414;DHT22;73638;49.676;8.606;2024-01-11T00:22:12;-1.1692;56.9665
43414;DHT22;73638;49.676;8.606;2024-01-11T00:27:18;-1.1532;57.0031
43414;DHT22;73638;49.676;8.606;2024-01-11T00:32:24;-1.2387;56.4859
43414;DHT22;73638;49.676;8.606;2024-01-11T00:37:30;-1.3722;56.8795
43414;DHT22;73638;49.676;8.606;2024-01-11T00:42:37;-1.1906;56.9406
43414;DHT22;73638;49.676;8.606;2024-01-11T00:47:43;-1.26;56.7575
43414;DHT22;73638;49.676;8.606;2024-01-11T00:52:49;-1.3722;56.4859
43414;DHT22;73638;49.676;8.606;2024-01-11T00:57:55;-1.4897;56.7819
43414;DHT22;73638;49.676;8.606;2024-01-11T01:03:01;-1.4977;57.3831
43414;DHT22;73638;49.676;8.606;2024-01-11T01:08:08;-1.4202;57.0642
43414;DHT22;73638;49.676;8.606;2024-01-11T01:13:14;-1.5377;57.7279
43414;DHT22;73638;49.676;8.606;2024-01-11T01:18:20;-1.3001;58.1949
43414;DHT22;73638;49.676;8.606;2024-01-11T01:23:26;-1.26;58.2559
43414;DHT22;73638;49.676;8.606;2024-01-11T01:28:33;-1.2654;58.613
43414;DHT22;73638;49.676;8.606;2024-01-11T01:33:40;-1.2039;58.3413
43414;DHT22;73638;49.676;8.606;2024-01-11T01:38:45;-1.244;58.5748
43414;DHT22;73638;49.676;8.606;2024-01-11T01:43:52;-1.2654;58.6007
43414;DHT22;73638;49.676;8.606;2024-01-11T01:48:58;-1.2306;58.3169
43414;DHT22;73638;49.676;8.606;2024-01-11T01:54:05;-1.4202;57.4701
43414;DHT22;73638;49.676;8.606;2024-01-11T01:59:11;-1.4683;57.4334
43414;DHT22;73638;49.676;8.606;2024-01-11T02:04:17;-1.5457;57.6532
43414;DHT22;73638;49.676;8.606;2024-01-11T02:19:40;-1.5671;57.0275
43414;DHT22;73638;49.676;8.606;2024-01-11T02:24:42;-1.6018;57.322
43414;DHT22;73638;49.676;8.606;2024-01-11T02:29:49;-1.6979;57.4578
43414;DHT22;73638;49.676;8.606;2024-01-11T02:34:55;-1.6793;57.2732
43414;DHT22;73638;49.676;8.606;2024-01-11T02:40:01;-1.706;57.1862
43414;DHT22;73638;49.676;8.606;2024-01-11T02:45:07;-1.754;57.9858
43414;DHT22;73638;49.676;8.606;2024-01-11T02:50:14;-1.6365;58.4894
43414;DHT22;73638;49.676;8.606;2024-01-11T02:55:19;-1.4336;58.9441
43414;DHT22;73638;49.676;8.606;2024-01-11T03:00:26;-1.4817;59.0295
43414;DHT22;73638;49.676;8.606;2024-01-11T03:05:32;-1.3508;59.1043
43414;DHT22;73638;49.676;8.606;2024-01-11T03:10:39;-1.3855;58.8205
43414;DHT22;73638;49.676;8.606;2024-01-11T03:15:45;-1.3775;58.7961
43414;DHT22;73638;49.676;8.606;2024-01-11T03:20:51;-1.4416;58.0591
43414;DHT22;73638;49.676;8.606;2024-01-11T03:25:57;-1.4336;57.113
43414;DHT22;73638;49.676;8.606;2024-01-11T03:31:03;-1.7273;57.641
43414;DHT22;73638;49.676;8.606;2024-01-11T03:36:11;-1.6979;58.613
43414;DHT22;73638;49.676;8.606;2024-01-11T03:41:16;-1.4549;59.2142
43414;DHT22;73638;49.676;8.606;2024-01-11T03:46:27;-1.3909;58.7228
43414;DHT22;73638;49.676;8.606;2024-01-11T03:51:29;-1.0998;58.6252
43414;DHT22;73638;49.676;8.606;2024-01-11T03:56:37;-0.9876;58.4405
43414;DHT22;73638;49.676;8.606;2024-01-11T04:01:42;-0.7073;57.8012
43414;DHT22;73638;49.676;8.606;2024-01-11T04:06:48;-0.9369;57.7401
43414;DHT22;73638;49.676;8.606;2024-01-11T04:11:54;-0.9796;57.7523
43414;DHT22;73638;49.676;8.606;2024-01-11T04:17:00;-1.1185;57.3709
43414;DHT22;73638;49.676;8.606;2024-01-11T04:22:07;-1.26;57.8256
43414;DHT22;73638;49.676;8.606;2024-01-11T04:27:13;-1.2734;57.9248
43414;DHT22;73638;49.676;8.606;2024-01-11T04:32:19;-1.1692;57.5433
43414;DHT22;73638;49.676;8.606;2024-01-11T04:37:25;-1.4549;57.1252
43414;DHT22;73638;49.676;8.606;2024-01-11T04:42:31;-1.5671;57.9614
43414;DHT22;73638;49.676;8.606;2024-01-11T04:47:38;-1.3428;58.6007
43414;DHT22;73638;49.676;8.606;2024-01-11T04:52:44;-1.26;58.6618
43414;DHT22;73638;49.676;8.606;2024-01-11T04:57:51;-1.3348;58.3795
43414;DHT22;73638;49.676;8.606;2024-01-11T05:02:57;-1.3855;58.8708
43414;DHT22;73638;49.676;8.606;2024-01-11T05:08:04;-1.5377;58.9319
43414;DHT22;73638;49.676;8.606;2024-01-11T05:13:09;-1.3989;58.7228
43414;DHT22;73638;49.676;8.606;2024-01-11T05:18:16;-1.3989;58.8586
43414;DHT22;73638;49.676;8.606;2024-01-11T05:23:22;-1.4763;58.5382
43414;DHT22;73638;49.676;8.606;2024-01-11T05:28:28;-1.6979;57.6043
43414;DHT22;73638;49.676;8.606;2024-01-11T05:33:37;-1.957;57.3465
43414;DHT22;73638;49.676;8.606;2024-01-11T05:38:42;-2.0424;57.4701
43414;DHT22;73638;49.676;8.606;2024-01-11T05:43:48;-2.0825;58.6007
43414;DHT22;73638;49.676;8.606;2024-01-11T05:48:54;-2.0905;59.0921
43414;DHT22;73638;49.676;8.606;2024-01-11T05:54:01;-1.9516;59.4354
43414;DHT22;73638;49.676;8.606;2024-01-11T05:59:07;-1.8261;59.5468
43414;DHT22;73638;49.676;8.606;2024-01-11T06:04:13;-1.77;59.3378
43414;DHT22;73638;49.676;8.606;2024-01-11T06:09:19;-1.9223;58.3535
43414;DHT22;73638;49.676;8.606;2024-01-11T06:14:26;-2.2641;57.6669
43414;DHT22;73638;49.676;8.606;2024-01-11T06:19:32;-2.3896;57.7646
43414;DHT22;73638;49.676;8.606;2024-01-11T06:24:38;-2.4884;57.9126
43414;DHT22;73638;49.676;8.606;2024-01-11T06:29:44;-2.5177;57.9126
43414;DHT22;73638;49.676;8.606;2024-01-11T06:34:50;-2.5872;57.5921
43414;DHT22;73638;49.676;8.606;2024-01-11T06:39:56;-2.6699;57.322
43414;DHT22;73638;49.676;8.606;2024-01-11T06:45:03;-2.6486;57.5677
43414;DHT22;73638;49.676;8.606;2024-01-11T06:50:09;-2.7527;57.3098
43414;DHT22;73638;49.676;8.606;2024-01-11T06:55:15;-2.8809;57.4823
43414;DHT22;73638;49.676;8.606;2024-01-11T07:00:21;-2.8168;58.3917
43414;DHT22;73638;49.676;8.606;2024-01-11T07:05:28;-2.6005;59.4354
43414;DHT22;73638;49.676;8.606;2024-01-11T07:10:34;-2.224;59.9145
43414;DHT22;73638;49.676;8.606;2024-01-11T07:15:40;-1.9783;59.0921
43414;DHT22;73638;49.676;8.606;2024-01-11T07:20:47;-1.7193;59.0539
43414;DHT22;73638;49.676;8.606;2024-01-11T07:25:53;-1.5885;58.4405
43414;DHT22;73638;49.676;8.606;2024-01-11T07:31:00;-1.4256;58.5748
43414;DHT22;73638;49.676;8.606;2024-01-11T07:36:06;-1.4336;58.2071
43414;DHT22;73638;49.676;8.606;2024-01-11T07:41:12;-1.5671;57.6532
43414;DHT22;73638;49.676;8.606;2024-01-11T07:46:18;-1.8101;57.3343
43414;DHT22;73638;49.676;8.606;2024-01-11T07:51:24;-1.8742;58.1582
43414;DHT22;73638;49.676;8.606;2024-01-11T07:56:30;-1.9436;57.7279
43414;DHT22;73638;49.676;8.606;2024-01-11T08:01:37;-1.8822;58.7961
43414;DHT22;73638;49.676;8.606;2024-01-11T08:06:43;-1.8822;58.3413
43414;DHT22;73638;49.676;8.606;2024-01-11T08:11:52;-1.8742;57.9126
43414;DHT22;73638;49.676;8.606;2024-01-11T08:16:56;-1.6712;58.6007
43414;DHT22;73638;49.676;8.606;2024-01-11T08:22:03;-1.5938;58.6374
43414;DHT22;73638;49.676;8.606;2024-01-11T08:27:09;-1.4416;58.3169
43414;DHT22;73638;49.676;8.606;2024-01-11T08:32:31;-1.3642;57.9858
43414;DHT22;73638;49.676;8.606;2024-01-11T08:37:22;-1.4122;57.3709
43414;DHT22;73638;49.676;8.606;2024-01-11T08:42:28;-1.2867;58.0468
43414;DHT22;73638;49.676;8.606;2024-01-11T08:47:35;-1.1826;58.5748
43414;DHT22;73638;49.676;8.606;2024-01-11T08:52:42;-0.9796;58.9929
43414;DHT22;73638;49.676;8.606;2024-01-11T08:57:47;-0.8969;58.8342
43414;DHT22;73638;49.676;8.606;2024-01-11T09:02:54;-0.6725;58.2437
43414;DHT22;73638;49.676;8.606;2024-01-11T09:08:00;-0.491;58.4405
43414;DHT22;73638;49.676;8.606;2024-01-11T09:13:07;-0.1839;58.0591
43414;DHT22;73638;49.676;8.606;2024-01-11T09:18:13;-0.1358;57.4945
43414;DHT22;73638;49.676;8.606;2024-01-11T09:23:19;-0.1972;57.641
43414;DHT22;73638;49.676;8.606;2024-01-11T09:28:26;-0.4002;57.6791
43414;DHT22;73638;49.676;8.606;2024-01-11T09:33:32;-0.037;57.0275
43414;DHT22;73638;49.676;8.606;2024-01-11T09:38:38;-0.4429;57.5555
43414;DHT22;73638;49.676;8.606;2024-01-11T09:43:45;-0.4349;57.9004
43414;DHT22;73638;49.676;8.606;2024-01-11T09:48:51;-0.3868;57.4456
43414;DHT22;73638;49.676;8.606;2024-01-11T09:53:59;-0.2319;57.5799
43414;DHT22;73638;49.676;8.606;2024-01-11T09:59:06;0.0538;57.5067
43414;DHT22;73638;49.676;8.606;2024-01-11T10:04:13;0.0751;56.9909
43414;DHT22;73638;49.676;8.606;2024-01-11T10:09:18;0.2087;56.7941
43414;DHT22;73638;49.676;8.606;2024-01-11T10:14:24;0.3689;57.4701
43414;DHT22;73638;49.676;8.606;2024-01-11T10:19:31;0.2487;56.9665
43414;DHT22;73638;49.676;8.606;2024-01-11T10:24:37;0.4864;56.6949
43414;DHT22;73638;49.676;8.606;2024-01-11T10:29:45;0.5772;56.3638
43414;DHT22;73638;49.676;8.606;2024-01-11T10:34:50;0.4303;56.8185
43414;DHT22;73638;49.676;8.606;2024-01-11T10:39:57;0.7321;57.113
43414;DHT22;73638;49.676;8.606;2024-01-11T10:45:03;0.7321;56.7453
43414;DHT22;73638;49.676;8.606;2024-01-11T10:50:09;0.8095;56.2661
43414;DHT22;73638;49.676;8.606;2024-01-11T10:55:15;1.0391;56.1547
43414;DHT22;73638;49.676;8.606;2024-01-11T11:00:22;0.9003;56.1547
43414;DHT22;73638;49.676;8.606;2024-01-11T11:05:28;0.9911;56.3882
43414;DHT22;73638;49.676;8.606;2024-01-11T11:10:34;1.1219;56.0571
43414;DHT22;73638;49.676;8.606;2024-01-11T11:15:42;1.2768;55.7
43414;DHT22;73638;49.676;8.606;2024-01-11T11:15:45;1.2768;55.7
43414;DHT22;73638;49.676;8.606;2024-01-11T11:20:49;1.2688;55.6634
43414;DHT22;73638;49.676;8.606;2024-01-11T11:25:55;1.4076;55.2377
43414;DHT22;73638;49.676;8.606;2024-01-11T11:31:02;1.3943;54.5861
43414;DHT22;73638;49.676;8.606;2024-01-11T11:36:12;1.4637;55.3475
43414;DHT22;73638;49.676;8.606;2024-01-11T11:41:16;1.429;55.3109
43414;DHT22;73638;49.676;8.606;2024-01-11T11:46:21;1.4504;55.3719
43414;DHT22;73638;49.676;8.606;2024-01-11T11:51:29;1.64;55.0896
43414;DHT22;73638;49.676;8.606;2024-01-11T11:56:34;1.7655;55.2987
43414;DHT22;73638;49.676;8.606;2024-01-11T12:01:41;1.9123;54.8562
43414;DHT22;73638;49.676;8.606;2024-01-11T12:06:47;1.9951;54.6227
43414;DHT22;73638;49.676;8.606;2024-01-11T12:12:07;2.2675;54.6838
43414;DHT22;73638;49.676;8.606;2024-01-11T12:17:00;2.0298;54.7951
43414;DHT22;73638;49.676;8.606;2024-01-11T12:22:06;2.1206;54.3648
43414;DHT22;73638;49.676;8.606;2024-01-11T12:27:13;2.3156;54.3038
43414;DHT22;73638;49.676;8.606;2024-01-11T12:32:20;2.4838;54.0826
43414;DHT22;73638;49.676;8.606;2024-01-11T12:37:26;2.5532;53.8735
43414;DHT22;73638;49.676;8.606;2024-01-11T12:42:34;2.5746;53.8857
43414;DHT22;73638;49.676;8.606;2024-01-11T12:47:39;2.6867;53.5531
43414;DHT22;73638;49.676;8.606;2024-01-11T12:52:45;2.8897;53.4051
43414;DHT22;73638;49.676;8.606;2024-01-11T12:58:03;2.7909;53.4051
43414;DHT22;73638;49.676;8.606;2024-01-11T13:02:58;3.0713;52.9992
43414;DHT22;73638;49.676;8.606;2024-01-11T13:08:08;2.9511;52.8527
43414;DHT22;73638;49.676;8.606;2024-01-11T13:13:11;3.106;52.8038
43414;DHT22;73638;49.676;8.606;2024-01-11T13:18:17;3.0713;53.0495
43414;DHT22;73638;49.676;8.606;2024-01-11T13:23:23;2.9938;52.9015
43414;DHT22;73638;49.676;8.606;2024-01-11T13:28:30;3.0285;51.9799
43414;DHT22;73638;49.676;8.606;2024-01-11T13:33:37;2.9377;52.1035
43414;DHT22;73638;49.676;8.606;2024-01-11T13:38:43;3.0579;52.668
43414;DHT22;73638;49.676;8.606;2024-01-11T13:43:49;3.098;52.8161
43414;DHT22;73638;49.676;8.606;2024-01-11T13:48:56;3.2048;52.6925
43414;DHT22;73638;49.676;8.606;2024-01-11T13:54:02;3.1487;52.2744
43414;DHT22;73638;49.676;8.606;2024-01-11T13:59:09;3.0926;52.0653
43414;DHT22;73638;49.676;8.606;2024-01-11T14:04:15;3.0926;52.3735
43414;DHT22;73638;49.676;8.606;2024-01-11T14:09:21;3.2101;52.2499
43414;DHT22;73638;49.676;8.606;2024-01-11T14:14:28;3.2795;52.1523
43414;DHT22;73638;49.676;8.606;2024-01-11T14:19:35;3.4211;52.311
43414;DHT22;73638;49.676;8.606;2024-01-11T14:24:43;3.4424;52.3857
43414;DHT22;73638;49.676;8.606;2024-01-11T14:29:50;3.4558;51.8074
43414;DHT22;73638;49.676;8.606;2024-01-11T14:34:56;3.3223;51.6106
43414;DHT22;73638;49.676;8.606;2024-01-11T14:40:03;3.357;51.8074
43414;DHT22;73638;49.676;8.606;2024-01-11T14:45:09;3.1968;51.6609
43414;DHT22;73638;49.676;8.606;2024-01-11T14:50:16;3.4077;51.6228
43414;DHT22;73638;49.676;8.606;2024-01-11T14:55:22;3.4424;52.0409
43414;DHT22;73638;49.676;8.606;2024-01-11T15:00:29;3.2742;52.2133
43414;DHT22;73638;49.676;8.606;2024-01-11T15:05:35;3.2315;52.0287
43414;DHT22;73638;49.676;8.606;2024-01-11T15:10:42;3.106;52.2499
43414;DHT22;73638;49.676;8.606;2024-01-11T15:15:48;3.1834;52.311
43414;DHT22;73638;49.676;8.606;2024-01-11T15:20:55;3.2448;52.2744
43414;DHT22;73638;49.676;8.606;2024-01-11T15:26:01;3.0713;52.5444
43414;DHT22;73638;49.676;8.606;2024-01-11T15:31:08;3.0072;53.3806
43414;DHT22;73638;49.676;8.606;2024-01-11T15:36:14;2.9511;53.1472
43414;DHT22;73638;49.676;8.606;2024-01-11T15:41:21;2.8683;52.9015
43414;DHT22;73638;49.676;8.606;2024-01-11T15:46:26;2.847;54.0566
43414;DHT22;73638;49.676;8.606;2024-01-11T15:51:33;2.6253;54.8318
43414;DHT22;73638;49.676;8.606;2024-01-11T15:56:39;2.401;54.757
43414;DHT22;73638;49.676;8.606;2024-01-11T16:02:03;2.4971;54.6227
43414;DHT22;73638;49.676;8.606;2024-01-11T16:22:15;1.9951;54.2168
43414;DHT22;73638;49.676;8.606;2024-01-11T16:27:20;1.8696;54.4991
43414;DHT22;73638;49.676;8.606;2024-01-11T16:32:26;1.891;54.6105
43414;DHT22;73638;49.676;8.606;2024-01-11T16:37:33;1.7521;54.4991
43414;DHT22;73638;49.676;8.606;2024-01-11T16:42:40;1.8215;54.6349
43414;DHT22;73638;49.676;8.606;2024-01-11T16:47:46;1.9123;55.1385
43414;DHT22;73638;49.676;8.606;2024-01-11T16:52:54;2.1286;54.4625
43414;DHT22;73638;49.676;8.606;2024-01-11T16:58:03;1.939;54.7707
43414;DHT22;73638;49.676;8.606;2024-01-11T17:03:08;1.7922;54.9294
43414;DHT22;73638;49.676;8.606;2024-01-11T17:08:13;1.68;55.6786
43414;DHT22;73638;49.676;8.606;2024-01-11T17:13:19;1.6266;55.6176
43414;DHT22;73638;49.676;8.606;2024-01-11T17:18:26;1.3115;55.2453
43414;DHT22;73638;49.676;8.606;2024-01-11T17:23:32;1.0952;55.552
43414;DHT22;73638;49.676;8.606;2024-01-11T17:28:38;1.2982;55.848
43414;DHT22;73638;49.676;8.606;2024-01-11T17:33:48;0.9483;55.5276
43414;DHT22;73638;49.676;8.606;2024-01-11T17:38:51;1.1219;55.9823
43414;DHT22;73638;49.676;8.606;2024-01-11T17:43:58;1.0952;55.7855
43414;DHT22;73638;49.676;8.606;2024-01-11T17:49:04;1.1513;55.9457
43414;DHT22;73638;49.676;8.606;2024-01-11T17:54:10;0.8442;56.4126
43414;DHT22;73638;49.676;8.606;2024-01-11T17:59:16;1.0044;56.8185
43414;DHT22;73638;49.676;8.606;2024-01-11T18:04:23;1.0098;56.9406
43414;DHT22;73638;49.676;8.606;2024-01-11T18:09:29;0.8442;57.3343
43414;DHT22;73638;49.676;8.606;2024-01-11T18:14:35;0.8282;57.4945
43414;DHT22;73638;49.676;8.606;2024-01-11T18:19:42;0.8709;57.641
43414;DHT22;73638;49.676;8.606;2024-01-11T18:24:48;0.9831;57.789
43414;DHT22;73638;49.676;8.606;2024-01-11T18:29:55;0.8228;57.2366
43414;DHT22;73638;49.676;8.606;2024-01-11T18:35:01;0.8148;56.8673
43414;DHT22;73638;49.676;8.606;2024-01-11T18:40:08;0.7668;56.5972
43414;DHT22;73638;49.676;8.606;2024-01-11T18:45:18;0.6466;56.3394
43414;DHT22;73638;49.676;8.606;2024-01-11T18:50:20;0.5852;57.0642
43414;DHT22;73638;49.676;8.606;2024-01-11T18:55:26;0.7027;57.8866
43414;DHT22;73638;49.676;8.606;2024-01-11T19:00:33;0.919;57.9614
43414;DHT22;73638;49.676;8.606;2024-01-11T19:05:40;0.927;57.6532
43414;DHT22;73638;49.676;8.606;2024-01-11T19:10:45;1.0739;56.7071
43414;DHT22;73638;49.676;8.606;2024-01-11T19:15:52;1.2341;56.6217
43414;DHT22;73638;49.676;8.606;2024-01-11T19:20:58;1.1513;56.2402
43414;DHT22;73638;49.676;8.606;2024-01-11T19:26:05;1.1433;56.1791
43414;DHT22;73638;49.676;8.606;2024-01-11T19:31:11;0.9964;55.9823
43414;DHT22;73638;49.676;8.606;2024-01-11T19:36:17;1.1566;56.1059
43414;DHT22;73638;49.676;8.606;2024-01-11T19:41:24;1.2634;55.9579
43414;DHT22;73638;49.676;8.606;2024-01-11T19:46:31;1.2982;56.2905
43414;DHT22;73638;49.676;8.606;2024-01-11T19:51:36;1.3169;56.228
43414;DHT22;73638;49.676;8.606;2024-01-11T19:56:43;1.2474;56.3027
43414;DHT22;73638;49.676;8.606;2024-01-11T20:01:52;1.1353;56.0693
43414;DHT22;73638;49.676;8.606;2024-01-11T20:07:00;1.1913;56.0067
43414;DHT22;73638;49.676;8.606;2024-01-11T20:12:03;1.2421;55.639
43414;DHT22;73638;49.676;8.606;2024-01-11T20:17:08;1.0391;55.8602
43414;DHT22;73638;49.676;8.606;2024-01-11T20:22:14;0.927;56.1669
43414;DHT22;73638;49.676;8.606;2024-01-11T20:27:21;0.7721;56.2402
43414;DHT22;73638;49.676;8.606;2024-01-11T20:32:27;0.7935;56.3394
43414;DHT22;73638;49.676;8.606;2024-01-11T20:37:33;0.668;56.8673
43414;DHT22;73638;49.676;8.606;2024-01-11T20:42:39;0.7534;56.4736
43414;DHT22;73638;49.676;8.606;2024-01-11T20:47:46;0.7374;56.1425
43414;DHT22;73638;49.676;8.606;2024-01-11T20:52:52;0.6893;56.5606
43414;DHT22;73638;49.676;8.606;2024-01-11T20:57:59;0.5077;56.4736
43414;DHT22;73638;49.676;8.606;2024-01-11T21:03:05;0.473;56.6949
43414;DHT22;73638;49.676;8.606;2024-01-11T21:08:11;0.7107;56.2783
43414;DHT22;73638;49.676;8.606;2024-01-11T21:13:20;0.7588;56.6339
43414;DHT22;73638;49.676;8.606;2024-01-11T21:18:26;0.7721;56.4492
43414;DHT22;73638;49.676;8.606;2024-01-11T21:23:33;0.6626;56.6217
43414;DHT22;73638;49.676;8.606;2024-01-11T21:28:39;0.6813;56.524
43414;DHT22;73638;49.676;8.606;2024-01-11T21:33:45;0.5905;56.376
43414;DHT22;73638;49.676;8.606;2024-01-11T21:38:52;0.6626;56.3882
43414;DHT22;73638;49.676;8.606;2024-01-11T21:43:58;0.6199;56.6094
43414;DHT22;73638;49.676;8.606;2024-01-11T21:49:05;0.6065;56.2402
43414;DHT22;73638;49.676;8.606;2024-01-11T21:54:10;0.3903;56.4614
43414;DHT22;73638;49.676;8.606;2024-01-11T21:59:16;0.3048;56.5362
43414;DHT22;73638;49.676;8.606;2024-01-11T22:04:22;0.1366;56.6461
43414;DHT22;73638;49.676;8.606;2024-01-11T22:09:29;0.2621;57.1862
43414;DHT22;73638;49.676;8.606;2024-01-11T22:14:35;0.3262;57.6532
43414;DHT22;73638;49.676;8.606;2024-01-11T22:19:41;0.3956;57.998
43414;DHT22;73638;49.676;8.606;2024-01-11T22:24:48;0.4997;58.1582
43414;DHT22;73638;49.676;8.606;2024-01-11T22:29:59;0.7668;58.4649
43414;DHT22;73638;49.676;8.606;2024-01-11T22:35:00;0.668;58.8083
43414;DHT22;73638;49.676;8.606;2024-01-11T22:40:08;0.7668;59.0921
43414;DHT22;73638;49.676;8.606;2024-01-11T22:45:13;0.9403;59.1165
43414;DHT22;73638;49.676;8.606;2024-01-11T22:50:20;0.7588;60.3082
43414;DHT22;73638;49.676;8.606;2024-01-11T22:55:26;0.9003;59.9268
43414;DHT22;73638;49.676;8.606;2024-01-11T23:00:32;0.919;59.9145
43414;DHT22;73638;49.676;8.606;2024-01-11T23:05:39;0.919;60.0382
43414;DHT22;73638;49.676;8.606;2024-01-11T23:10:56;0.9751;60.3449
43414;DHT22;73638;49.676;8.606;2024-01-11T23:15:52;0.8282;60.4181
43414;DHT22;73638;49.676;8.606;2024-01-11T23:20:58;0.7588;59.939
43414;DHT22;73638;49.676;8.606;2024-01-11T23:26:04;0.5505;59.6078
43414;DHT22;73638;49.676;8.606;2024-01-11T23:31:10;0.3342;59.4354
43414;DHT22;73638;49.676;8.606;2024-01-11T23:36:16;0.2434;59.7299
43414;DHT22;73638;49.676;8.606;2024-01-11T23:41:23;0.0805;59.5468
43414;DHT22;73638;49.676;8.606;2024-01-11T23:46:29;0.1312;59.9268
43414;DHT22;73638;49.676;8.606;2024-01-11T23:51:36;-0.0156;59.7925
43414;DHT22;73638;49.676;8.606;2024-01-11T23:56:42;-0.1972;59.8657
